sensor_id;sensor_type;location;lat;lon;timestamp;P1;durP1;ratioP1;P2;durP2;ratioP2
21754;SDS011;11039;50.028;19.938;2023-06-19T00:01:57;5.32;;;4.90;;
21754;SDS011;11039;50.028;19.938;2023-06-19T00:04:23;5.65;;;5.15;;
21754;SDS011;11039;50.028;19.938;2023-06-19T00:06:51;5.95;;;5.30;;
21754;SDS011;11039;50.028;19.938;2023-06-19T00:09:17;5.43;;;4.93;;
21754;SDS011;11039;50.028;19.938;2023-06-19T00:11:44;6.10;;;4.95;;
21754;SDS011;11039;50.028;19.938;2023-06-19T00:14:10;4.90;;;4.50;;
21754;SDS011;11039;50.028;19.938;2023-06-19T00:16:36;5.15;;;4.65;;
21754;SDS011;11039;50.028;19.938;2023-06-19T00:19:02;5.60;;;5.10;;
21754;SDS011;11039;50.028;19.938;2023-06-19T00:21:28;6.05;;;4.82;;
21754;SDS011;11039;50.028;19.938;2023-06-19T00:23:55;5.63;;;5.13;;
21754;SDS011;11039;50.028;19.938;2023-06-19T00:26:21;5.57;;;5.00;;
21754;SDS011;11039;50.028;19.938;2023-06-19T00:28:49;5.78;;;5.28;;
21754;SDS011;11039;50.028;19.938;2023-06-19T00:31:15;5.60;;;5.10;;
21754;SDS011;11039;50.028;19.938;2023-06-19T00:33:41;5.38;;;4.88;;
21754;SDS011;11039;50.028;19.938;2023-06-19T00:36:11;5.57;;;5.07;;
21754;SDS011;11039;50.028;19.938;2023-06-19T00:38:37;5.72;;;5.22;;
21754;SDS011;11039;50.028;19.938;2023-06-19T00:41:04;5.72;;;5.22;;
21754;SDS011;11039;50.028;19.938;2023-06-19T00:43:30;5.82;;;5.28;;
21754;SDS011;11039;50.028;19.938;2023-06-19T00:46:00;5.38;;;4.88;;
21754;SDS011;11039;50.028;19.938;2023-06-19T00:48:26;8.23;;;5.03;;
21754;SDS011;11039;50.028;19.938;2023-06-19T00:53:11;5.15;;;4.65;;
21754;SDS011;11039;50.028;19.938;2023-06-19T00:55:37;5.47;;;4.97;;
21754;SDS011;11039;50.028;19.938;2023-06-19T00:58:03;5.53;;;5.03;;
21754;SDS011;11039;50.028;19.938;2023-06-19T01:00:29;5.75;;;5.03;;
21754;SDS011;11039;50.028;19.938;2023-06-19T01:02:55;6.10;;;5.50;;
21754;SDS011;11039;50.028;19.938;2023-06-19T01:05:21;6.25;;;5.68;;
21754;SDS011;11039;50.028;19.938;2023-06-19T01:10:14;5.95;;;5.35;;
21754;SDS011;11039;50.028;19.938;2023-06-19T01:12:42;5.53;;;5.03;;
21754;SDS011;11039;50.028;19.938;2023-06-19T01:15:15;5.38;;;4.88;;
21754;SDS011;11039;50.028;19.938;2023-06-19T01:17:41;4.95;;;4.53;;
21754;SDS011;11039;50.028;19.938;2023-06-19T01:20:07;5.53;;;5.03;;
21754;SDS011;11039;50.028;19.938;2023-06-19T01:22:36;5.88;;;5.38;;
21754;SDS011;11039;50.028;19.938;2023-06-19T01:25:02;5.53;;;5.03;;
21754;SDS011;11039;50.028;19.938;2023-06-19T01:27:31;5.15;;;4.65;;
21754;SDS011;11039;50.028;19.938;2023-06-19T01:29:58;6.10;;;5.30;;
21754;SDS011;11039;50.028;19.938;2023-06-19T01:32:41;5.40;;;4.90;;
21754;SDS011;11039;50.028;19.938;2023-06-19T01:35:10;5.40;;;4.90;;
21754;SDS011;11039;50.028;19.938;2023-06-19T01:37:37;6.15;;;5.45;;
21754;SDS011;11039;50.028;19.938;2023-06-19T01:40:04;5.32;;;4.82;;
21754;SDS011;11039;50.028;19.938;2023-06-19T01:42:31;5.35;;;4.85;;
21754;SDS011;11039;50.028;19.938;2023-06-19T01:44:58;5.57;;;5.00;;
21754;SDS011;11039;50.028;19.938;2023-06-19T01:47:25;5.88;;;5.35;;
21754;SDS011;11039;50.028;19.938;2023-06-19T01:49:51;5.18;;;4.68;;
21754;SDS011;11039;50.028;19.938;2023-06-19T01:52:17;6.13;;;5.53;;
21754;SDS011;11039;50.028;19.938;2023-06-19T01:54:43;5.68;;;5.05;;
21754;SDS011;11039;50.028;19.938;2023-06-19T01:57:09;5.35;;;4.85;;
21754;SDS011;11039;50.028;19.938;2023-06-19T01:59:35;5.30;;;4.80;;
21754;SDS011;11039;50.028;19.938;2023-06-19T02:02:01;5.35;;;4.85;;
21754;SDS011;11039;50.028;19.938;2023-06-19T02:04:29;5.85;;;5.25;;
21754;SDS011;11039;50.028;19.938;2023-06-19T02:11:31;5.70;;;5.20;;
21754;SDS011;11039;50.028;19.938;2023-06-19T02:13:57;5.53;;;4.82;;
21754;SDS011;11039;50.028;19.938;2023-06-19T02:18:42;5.68;;;5.18;;
21754;SDS011;11039;50.028;19.938;2023-06-19T02:21:08;5.03;;;4.57;;
21754;SDS011;11039;50.028;19.938;2023-06-19T02:23:34;5.18;;;4.68;;
21754;SDS011;11039;50.028;19.938;2023-06-19T02:26:00;5.30;;;4.80;;
21754;SDS011;11039;50.028;19.938;2023-06-19T02:28:26;5.10;;;4.55;;
21754;SDS011;11039;50.028;19.938;2023-06-19T02:30:53;5.13;;;4.63;;
21754;SDS011;11039;50.028;19.938;2023-06-19T02:33:19;5.13;;;4.63;;
21754;SDS011;11039;50.028;19.938;2023-06-19T02:35:45;5.00;;;4.50;;
21754;SDS011;11039;50.028;19.938;2023-06-19T02:38:11;5.57;;;4.93;;
21754;SDS011;11039;50.028;19.938;2023-06-19T02:40:38;5.10;;;4.60;;
21754;SDS011;11039;50.028;19.938;2023-06-19T02:43:04;4.75;;;4.35;;
21754;SDS011;11039;50.028;19.938;2023-06-19T02:45:30;5.10;;;4.60;;
21754;SDS011;11039;50.028;19.938;2023-06-19T02:47:56;6.03;;;4.97;;
21754;SDS011;11039;50.028;19.938;2023-06-19T02:50:22;5.40;;;4.82;;
21754;SDS011;11039;50.028;19.938;2023-06-19T02:52:48;4.85;;;4.43;;
21754;SDS011;11039;50.028;19.938;2023-06-19T02:55:14;5.03;;;4.63;;
21754;SDS011;11039;50.028;19.938;2023-06-19T02:57:40;5.78;;;5.28;;
21754;SDS011;11039;50.028;19.938;2023-06-19T03:00:07;5.30;;;4.80;;
21754;SDS011;11039;50.028;19.938;2023-06-19T03:02:34;5.35;;;4.85;;
21754;SDS011;11039;50.028;19.938;2023-06-19T03:05:01;5.60;;;5.10;;
21754;SDS011;11039;50.028;19.938;2023-06-19T03:07:27;5.45;;;4.95;;
21754;SDS011;11039;50.028;19.938;2023-06-19T03:09:53;6.60;;;4.88;;
21754;SDS011;11039;50.028;19.938;2023-06-19T03:12:19;4.60;;;4.20;;
21754;SDS011;11039;50.028;19.938;2023-06-19T03:14:45;5.13;;;4.63;;
21754;SDS011;11039;50.028;19.938;2023-06-19T03:17:12;5.75;;;5.22;;
21754;SDS011;11039;50.028;19.938;2023-06-19T03:19:38;4.95;;;4.45;;
21754;SDS011;11039;50.028;19.938;2023-06-19T03:22:04;5.60;;;5.10;;
21754;SDS011;11039;50.028;19.938;2023-06-19T03:24:30;5.28;;;4.78;;
21754;SDS011;11039;50.028;19.938;2023-06-19T03:26:56;5.50;;;5.00;;
21754;SDS011;11039;50.028;19.938;2023-06-19T03:34:00;6.65;;;4.75;;
21754;SDS011;11039;50.028;19.938;2023-06-19T03:36:26;5.28;;;4.78;;
21754;SDS011;11039;50.028;19.938;2023-06-19T03:38:52;5.43;;;4.93;;
21754;SDS011;11039;50.028;19.938;2023-06-19T03:41:20;4.80;;;4.40;;
21754;SDS011;11039;50.028;19.938;2023-06-19T03:43:46;4.72;;;4.32;;
21754;SDS011;11039;50.028;19.938;2023-06-19T03:46:12;5.57;;;4.80;;
21754;SDS011;11039;50.028;19.938;2023-06-19T03:48:38;5.32;;;4.82;;
21754;SDS011;11039;50.028;19.938;2023-06-19T03:51:04;4.90;;;4.50;;
21754;SDS011;11039;50.028;19.938;2023-06-19T03:53:30;4.55;;;4.15;;
21754;SDS011;11039;50.028;19.938;2023-06-19T03:55:56;4.50;;;4.10;;
21754;SDS011;11039;50.028;19.938;2023-06-19T03:58:23;4.93;;;4.53;;
21754;SDS011;11039;50.028;19.938;2023-06-19T04:00:49;5.03;;;4.53;;
21754;SDS011;11039;50.028;19.938;2023-06-19T04:03:15;5.15;;;4.70;;
21754;SDS011;11039;50.028;19.938;2023-06-19T04:05:41;5.25;;;4.72;;
21754;SDS011;11039;50.028;19.938;2023-06-19T04:08:07;4.82;;;4.43;;
21754;SDS011;11039;50.028;19.938;2023-06-19T04:10:33;4.72;;;4.32;;
21754;SDS011;11039;50.028;19.938;2023-06-19T04:12:59;5.30;;;4.80;;
21754;SDS011;11039;50.028;19.938;2023-06-19T04:15:25;5.18;;;4.68;;
21754;SDS011;11039;50.028;19.938;2023-06-19T04:17:51;5.03;;;4.53;;
21754;SDS011;11039;50.028;19.938;2023-06-19T04:20:17;5.20;;;4.70;;
21754;SDS011;11039;50.028;19.938;2023-06-19T04:22:43;5.15;;;4.65;;
21754;SDS011;11039;50.028;19.938;2023-06-19T04:25:09;5.03;;;4.53;;
21754;SDS011;11039;50.028;19.938;2023-06-19T04:27:35;5.75;;;4.45;;
21754;SDS011;11039;50.028;19.938;2023-06-19T04:30:02;4.82;;;4.35;;
21754;SDS011;11039;50.028;19.938;2023-06-19T04:32:29;4.90;;;4.50;;
21754;SDS011;11039;50.028;19.938;2023-06-19T04:34:55;5.05;;;4.55;;
21754;SDS011;11039;50.028;19.938;2023-06-19T04:39:40;4.85;;;4.30;;
21754;SDS011;11039;50.028;19.938;2023-06-19T04:42:06;5.20;;;4.50;;
21754;SDS011;11039;50.028;19.938;2023-06-19T04:44:32;5.22;;;4.82;;
21754;SDS011;11039;50.028;19.938;2023-06-19T04:46:59;4.82;;;4.40;;
21754;SDS011;11039;50.028;19.938;2023-06-19T04:51:43;5.82;;;4.72;;
21754;SDS011;11039;50.028;19.938;2023-06-19T04:54:09;5.15;;;4.65;;
21754;SDS011;11039;50.028;19.938;2023-06-19T04:58:58;6.35;;;4.72;;
21754;SDS011;11039;50.028;19.938;2023-06-19T05:01:26;4.97;;;4.57;;
21754;SDS011;11039;50.028;19.938;2023-06-19T05:03:54;4.95;;;4.45;;
21754;SDS011;11039;50.028;19.938;2023-06-19T05:06:24;5.22;;;4.60;;
21754;SDS011;11039;50.028;19.938;2023-06-19T05:08:50;4.85;;;4.35;;
21754;SDS011;11039;50.028;19.938;2023-06-19T05:11:16;4.65;;;4.25;;
21754;SDS011;11039;50.028;19.938;2023-06-19T05:13:42;5.20;;;4.70;;
21754;SDS011;11039;50.028;19.938;2023-06-19T05:16:08;5.15;;;4.65;;
21754;SDS011;11039;50.028;19.938;2023-06-19T05:18:34;4.97;;;4.55;;
21754;SDS011;11039;50.028;19.938;2023-06-19T05:21:00;5.47;;;4.97;;
21754;SDS011;11039;50.028;19.938;2023-06-19T05:23:26;4.80;;;4.40;;
21754;SDS011;11039;50.028;19.938;2023-06-19T05:25:52;5.82;;;4.70;;
21754;SDS011;11039;50.028;19.938;2023-06-19T05:28:18;5.03;;;4.63;;
21754;SDS011;11039;50.028;19.938;2023-06-19T05:30:44;5.53;;;4.63;;
21754;SDS011;11039;50.028;19.938;2023-06-19T05:33:10;5.07;;;4.57;;
21754;SDS011;11039;50.028;19.938;2023-06-19T05:35:41;4.70;;;4.30;;
21754;SDS011;11039;50.028;19.938;2023-06-19T05:38:08;5.40;;;4.68;;
21754;SDS011;11039;50.028;19.938;2023-06-19T05:42:52;4.80;;;4.40;;
21754;SDS011;11039;50.028;19.938;2023-06-19T05:45:20;5.13;;;4.63;;
21754;SDS011;11039;50.028;19.938;2023-06-19T05:47:46;5.78;;;4.65;;
21754;SDS011;11039;50.028;19.938;2023-06-19T05:50:12;5.13;;;4.63;;
21754;SDS011;11039;50.028;19.938;2023-06-19T05:54:58;8.27;;;7.47;;
21754;SDS011;11039;50.028;19.938;2023-06-19T05:57:25;9.20;;;7.80;;
21754;SDS011;11039;50.028;19.938;2023-06-19T05:59:51;8.48;;;7.60;;
21754;SDS011;11039;50.028;19.938;2023-06-19T06:02:19;8.40;;;7.50;;
21754;SDS011;11039;50.028;19.938;2023-06-19T06:04:45;8.23;;;7.40;;
21754;SDS011;11039;50.028;19.938;2023-06-19T06:07:11;10.25;;;8.40;;
21754;SDS011;11039;50.028;19.938;2023-06-19T06:09:38;8.98;;;8.07;;
21754;SDS011;11039;50.028;19.938;2023-06-19T06:12:04;10.63;;;7.85;;
21754;SDS011;11039;50.028;19.938;2023-06-19T06:14:31;10.40;;;7.80;;
21754;SDS011;11039;50.028;19.938;2023-06-19T06:16:57;8.57;;;7.65;;
21754;SDS011;11039;50.028;19.938;2023-06-19T06:19:23;8.90;;;8.00;;
21754;SDS011;11039;50.028;19.938;2023-06-19T06:21:49;8.85;;;7.95;;
21754;SDS011;11039;50.028;19.938;2023-06-19T06:24:15;8.85;;;7.70;;
21754;SDS011;11039;50.028;19.938;2023-06-19T06:26:41;9.40;;;7.13;;
21754;SDS011;11039;50.028;19.938;2023-06-19T06:29:08;8.15;;;7.30;;
21754;SDS011;11039;50.028;19.938;2023-06-19T06:31:34;8.82;;;7.68;;
21754;SDS011;11039;50.028;19.938;2023-06-19T06:34:00;8.50;;;7.70;;
21754;SDS011;11039;50.028;19.938;2023-06-19T06:36:26;9.52;;;8.05;;
21754;SDS011;11039;50.028;19.938;2023-06-19T06:38:52;8.73;;;6.72;;
21754;SDS011;11039;50.028;19.938;2023-06-19T06:41:18;8.30;;;7.50;;
21754;SDS011;11039;50.028;19.938;2023-06-19T06:43:44;8.23;;;7.15;;
21754;SDS011;11039;50.028;19.938;2023-06-19T06:48:28;6.78;;;6.18;;
21754;SDS011;11039;50.028;19.938;2023-06-19T06:50:55;8.63;;;6.70;;
21754;SDS011;11039;50.028;19.938;2023-06-19T06:53:26;7.35;;;6.65;;
21754;SDS011;11039;50.028;19.938;2023-06-19T06:55:53;8.20;;;6.50;;
21754;SDS011;11039;50.028;19.938;2023-06-19T06:58:19;7.85;;;7.10;;
21754;SDS011;11039;50.028;19.938;2023-06-19T07:00:45;7.65;;;6.35;;
21754;SDS011;11039;50.028;19.938;2023-06-19T07:03:12;7.07;;;6.38;;
21754;SDS011;11039;50.028;19.938;2023-06-19T07:05:38;6.88;;;6.28;;
21754;SDS011;11039;50.028;19.938;2023-06-19T07:08:04;8.18;;;7.00;;
21754;SDS011;11039;50.028;19.938;2023-06-19T07:10:31;7.22;;;6.53;;
21754;SDS011;11039;50.028;19.938;2023-06-19T07:12:57;7.15;;;6.45;;
21754;SDS011;11039;50.028;19.938;2023-06-19T07:15:23;9.60;;;6.85;;
21754;SDS011;11039;50.028;19.938;2023-06-19T07:17:49;8.23;;;6.90;;
21754;SDS011;11039;50.028;19.938;2023-06-19T07:20:15;8.00;;;7.18;;
21754;SDS011;11039;50.028;19.938;2023-06-19T07:22:41;7.50;;;6.78;;
21754;SDS011;11039;50.028;19.938;2023-06-19T07:25:09;7.85;;;6.85;;
21754;SDS011;11039;50.028;19.938;2023-06-19T07:27:36;8.80;;;6.75;;
21754;SDS011;11039;50.028;19.938;2023-06-19T07:30:02;6.85;;;6.15;;
21754;SDS011;11039;50.028;19.938;2023-06-19T07:34:49;6.95;;;6.35;;
21754;SDS011;11039;50.028;19.938;2023-06-19T07:37:15;6.75;;;6.15;;
21754;SDS011;11039;50.028;19.938;2023-06-19T07:39:45;8.63;;;6.55;;
21754;SDS011;11039;50.028;19.938;2023-06-19T07:42:11;6.70;;;6.10;;
21754;SDS011;11039;50.028;19.938;2023-06-19T07:44:37;7.13;;;6.38;;
21754;SDS011;11039;50.028;19.938;2023-06-19T07:47:03;8.07;;;6.43;;
21754;SDS011;11039;50.028;19.938;2023-06-19T07:49:29;7.22;;;6.50;;
21754;SDS011;11039;50.028;19.938;2023-06-19T07:51:55;8.52;;;6.72;;
21754;SDS011;11039;50.028;19.938;2023-06-19T07:54:21;7.03;;;5.97;;
21754;SDS011;11039;50.028;19.938;2023-06-19T07:56:47;7.28;;;6.20;;
21754;SDS011;11039;50.028;19.938;2023-06-19T07:59:13;6.15;;;5.55;;
21754;SDS011;11039;50.028;19.938;2023-06-19T08:01:40;7.60;;;6.22;;
21754;SDS011;11039;50.028;19.938;2023-06-19T08:04:06;7.13;;;6.43;;
21754;SDS011;11039;50.028;19.938;2023-06-19T08:06:32;8.27;;;6.50;;
21754;SDS011;11039;50.028;19.938;2023-06-19T08:08:58;6.70;;;6.07;;
21754;SDS011;11039;50.028;19.938;2023-06-19T08:11:24;6.85;;;6.15;;
21754;SDS011;11039;50.028;19.938;2023-06-19T08:13:50;7.47;;;6.25;;
21754;SDS011;11039;50.028;19.938;2023-06-19T08:16:16;7.93;;;6.47;;
21754;SDS011;11039;50.028;19.938;2023-06-19T08:18:43;6.47;;;5.88;;
21754;SDS011;11039;50.028;19.938;2023-06-19T08:21:09;6.85;;;6.25;;
21754;SDS011;11039;50.028;19.938;2023-06-19T08:23:35;6.80;;;6.10;;
21754;SDS011;11039;50.028;19.938;2023-06-19T08:26:03;7.25;;;6.18;;
21754;SDS011;11039;50.028;19.938;2023-06-19T08:30:48;6.75;;;6.15;;
21754;SDS011;11039;50.028;19.938;2023-06-19T08:33:14;6.80;;;6.20;;
21754;SDS011;11039;50.028;19.938;2023-06-19T08:35:40;6.35;;;5.80;;
21754;SDS011;11039;50.028;19.938;2023-06-19T08:38:06;6.70;;;5.90;;
21754;SDS011;11039;50.028;19.938;2023-06-19T08:40:32;8.02;;;6.30;;
21754;SDS011;11039;50.028;19.938;2023-06-19T08:42:58;6.50;;;5.90;;
21754;SDS011;11039;50.028;19.938;2023-06-19T08:45:26;6.68;;;6.00;;
21754;SDS011;11039;50.028;19.938;2023-06-19T08:47:59;7.03;;;6.10;;
21754;SDS011;11039;50.028;19.938;2023-06-19T08:50:27;7.07;;;5.88;;
21754;SDS011;11039;50.028;19.938;2023-06-19T08:52:54;7.07;;;6.18;;
21754;SDS011;11039;50.028;19.938;2023-06-19T08:55:20;7.32;;;6.28;;
21754;SDS011;11039;50.028;19.938;2023-06-19T08:57:47;7.75;;;6.45;;
21754;SDS011;11039;50.028;19.938;2023-06-19T09:00:22;6.65;;;6.05;;
21754;SDS011;11039;50.028;19.938;2023-06-19T09:02:50;6.78;;;5.95;;
21754;SDS011;11039;50.028;19.938;2023-06-19T09:05:16;6.30;;;5.70;;
21754;SDS011;11039;50.028;19.938;2023-06-19T09:07:43;8.10;;;6.13;;
21754;SDS011;11039;50.028;19.938;2023-06-19T09:10:13;7.20;;;6.50;;
21754;SDS011;11039;50.028;19.938;2023-06-19T09:12:41;6.43;;;5.82;;
21754;SDS011;11039;50.028;19.938;2023-06-19T09:15:13;5.97;;;5.38;;
21754;SDS011;11039;50.028;19.938;2023-06-19T09:19:59;6.85;;;6.20;;
21754;SDS011;11039;50.028;19.938;2023-06-19T09:22:28;6.80;;;6.10;;
21754;SDS011;11039;50.028;19.938;2023-06-19T09:24:59;6.18;;;5.57;;
21754;SDS011;11039;50.028;19.938;2023-06-19T09:27:31;6.53;;;5.70;;
21754;SDS011;11039;50.028;19.938;2023-06-19T09:29:57;6.55;;;5.85;;
21754;SDS011;11039;50.028;19.938;2023-06-19T09:32:27;7.25;;;6.00;;
21754;SDS011;11039;50.028;19.938;2023-06-19T09:34:54;6.45;;;5.85;;
21754;SDS011;11039;50.028;19.938;2023-06-19T09:37:24;6.25;;;5.55;;
21754;SDS011;11039;50.028;19.938;2023-06-19T09:39:52;6.82;;;6.22;;
21754;SDS011;11039;50.028;19.938;2023-06-19T09:42:18;6.75;;;6.15;;
21754;SDS011;11039;50.028;19.938;2023-06-19T09:44:45;7.15;;;5.93;;
21754;SDS011;11039;50.028;19.938;2023-06-19T09:47:23;5.57;;;5.07;;
21754;SDS011;11039;50.028;19.938;2023-06-19T09:49:54;6.95;;;6.25;;
21754;SDS011;11039;50.028;19.938;2023-06-19T09:52:20;6.97;;;6.28;;
21754;SDS011;11039;50.028;19.938;2023-06-19T09:54:47;6.95;;;5.60;;
21754;SDS011;11039;50.028;19.938;2023-06-19T09:57:15;5.80;;;5.30;;
21754;SDS011;11039;50.028;19.938;2023-06-19T10:01:59;6.40;;;5.80;;
21754;SDS011;11039;50.028;19.938;2023-06-19T10:04:26;7.38;;;5.82;;
21754;SDS011;11039;50.028;19.938;2023-06-19T10:06:54;6.72;;;6.03;;
21754;SDS011;11039;50.028;19.938;2023-06-19T10:09:22;6.18;;;5.57;;
21754;SDS011;11039;50.028;19.938;2023-06-19T10:11:51;6.10;;;5.60;;
21754;SDS011;11039;50.028;19.938;2023-06-19T10:14:18;7.30;;;6.47;;
21754;SDS011;11039;50.028;19.938;2023-06-19T10:16:44;6.40;;;5.80;;
21754;SDS011;11039;50.028;19.938;2023-06-19T10:19:14;6.68;;;5.90;;
21754;SDS011;11039;50.028;19.938;2023-06-19T10:21:47;6.68;;;6.07;;
21754;SDS011;11039;50.028;19.938;2023-06-19T10:24:14;6.65;;;6.05;;
21754;SDS011;11039;50.028;19.938;2023-06-19T10:26:43;6.90;;;5.90;;
21754;SDS011;11039;50.028;19.938;2023-06-19T10:29:16;6.57;;;5.97;;
21754;SDS011;11039;50.028;19.938;2023-06-19T10:31:42;7.13;;;6.13;;
21754;SDS011;11039;50.028;19.938;2023-06-19T10:34:09;6.30;;;5.70;;
21754;SDS011;11039;50.028;19.938;2023-06-19T10:36:36;6.55;;;5.90;;
21754;SDS011;11039;50.028;19.938;2023-06-19T10:39:02;6.85;;;6.15;;
21754;SDS011;11039;50.028;19.938;2023-06-19T10:41:29;8.20;;;6.18;;
21754;SDS011;11039;50.028;19.938;2023-06-19T10:46:30;6.45;;;5.85;;
21754;SDS011;11039;50.028;19.938;2023-06-19T10:48:57;6.72;;;6.13;;
21754;SDS011;11039;50.028;19.938;2023-06-19T10:51:26;6.63;;;6.03;;
21754;SDS011;11039;50.028;19.938;2023-06-19T10:53:53;6.85;;;6.25;;
21754;SDS011;11039;50.028;19.938;2023-06-19T10:56:20;6.97;;;6.28;;
21754;SDS011;11039;50.028;19.938;2023-06-19T10:58:46;8.15;;;6.57;;
21754;SDS011;11039;50.028;19.938;2023-06-19T11:01:12;7.88;;;6.10;;
21754;SDS011;11039;50.028;19.938;2023-06-19T11:03:38;7.47;;;6.43;;
21754;SDS011;11039;50.028;19.938;2023-06-19T11:06:04;9.13;;;6.55;;
21754;SDS011;11039;50.028;19.938;2023-06-19T11:08:30;7.10;;;6.40;;
21754;SDS011;11039;50.028;19.938;2023-06-19T11:10:56;6.35;;;5.75;;
21754;SDS011;11039;50.028;19.938;2023-06-19T11:13:23;6.55;;;5.95;;
21754;SDS011;11039;50.028;19.938;2023-06-19T11:15:49;7.03;;;6.40;;
21754;SDS011;11039;50.028;19.938;2023-06-19T11:18:16;7.93;;;6.53;;
21754;SDS011;11039;50.028;19.938;2023-06-19T11:20:43;7.25;;;6.55;;
21754;SDS011;11039;50.028;19.938;2023-06-19T11:23:09;6.88;;;6.18;;
21754;SDS011;11039;50.028;19.938;2023-06-19T11:25:38;6.72;;;6.13;;
21754;SDS011;11039;50.028;19.938;2023-06-19T11:28:10;6.60;;;6.00;;
21754;SDS011;11039;50.028;19.938;2023-06-19T11:30:36;7.07;;;6.22;;
21754;SDS011;11039;50.028;19.938;2023-06-19T11:33:02;8.23;;;7.32;;
21754;SDS011;11039;50.028;19.938;2023-06-19T11:35:34;6.78;;;6.15;;
21754;SDS011;11039;50.028;19.938;2023-06-19T11:38:01;6.88;;;6.28;;
21754;SDS011;11039;50.028;19.938;2023-06-19T11:40:27;7.43;;;6.82;;
21754;SDS011;11039;50.028;19.938;2023-06-19T11:47:32;9.38;;;6.68;;
21754;SDS011;11039;50.028;19.938;2023-06-19T11:49:58;7.57;;;6.78;;
21754;SDS011;11039;50.028;19.938;2023-06-19T11:54:44;8.40;;;6.60;;
21754;SDS011;11039;50.028;19.938;2023-06-19T11:57:10;7.18;;;6.30;;
21754;SDS011;11039;50.028;19.938;2023-06-19T11:59:38;7.10;;;6.32;;
21754;SDS011;11039;50.028;19.938;2023-06-19T12:02:04;7.63;;;6.95;;
21754;SDS011;11039;50.028;19.938;2023-06-19T12:04:30;7.28;;;6.57;;
21754;SDS011;11039;50.028;19.938;2023-06-19T12:06:56;6.97;;;6.28;;
21754;SDS011;11039;50.028;19.938;2023-06-19T12:09:22;6.45;;;5.85;;
21754;SDS011;11039;50.028;19.938;2023-06-19T12:11:49;6.68;;;6.07;;
21754;SDS011;11039;50.028;19.938;2023-06-19T12:14:15;7.07;;;6.43;;
21754;SDS011;11039;50.028;19.938;2023-06-19T12:16:43;7.13;;;6.40;;
21754;SDS011;11039;50.028;19.938;2023-06-19T12:19:09;7.25;;;6.53;;
21754;SDS011;11039;50.028;19.938;2023-06-19T12:21:35;7.18;;;6.57;;
21754;SDS011;11039;50.028;19.938;2023-06-19T12:24:01;7.53;;;6.82;;
21754;SDS011;11039;50.028;19.938;2023-06-19T12:26:27;7.78;;;6.57;;
21754;SDS011;11039;50.028;19.938;2023-06-19T12:31:23;8.27;;;6.68;;
21754;SDS011;11039;50.028;19.938;2023-06-19T12:33:50;7.30;;;6.70;;
21754;SDS011;11039;50.028;19.938;2023-06-19T12:36:16;7.28;;;6.68;;
21754;SDS011;11039;50.028;19.938;2023-06-19T12:38:42;7.97;;;6.65;;
21754;SDS011;11039;50.028;19.938;2023-06-19T12:41:08;6.40;;;5.80;;
21754;SDS011;11039;50.028;19.938;2023-06-19T12:43:34;8.10;;;7.00;;
21754;SDS011;11039;50.028;19.938;2023-06-19T12:48:20;8.57;;;7.68;;
21754;SDS011;11039;50.028;19.938;2023-06-19T12:50:46;9.65;;;8.15;;
21754;SDS011;11039;50.028;19.938;2023-06-19T12:53:12;8.55;;;7.70;;
21754;SDS011;11039;50.028;19.938;2023-06-19T12:55:38;8.88;;;7.97;;
21754;SDS011;11039;50.028;19.938;2023-06-19T12:58:04;8.52;;;7.53;;
21754;SDS011;11039;50.028;19.938;2023-06-19T13:00:30;10.10;;;8.07;;
21754;SDS011;11039;50.028;19.938;2023-06-19T13:02:56;10.93;;;7.35;;
21754;SDS011;11039;50.028;19.938;2023-06-19T13:05:22;9.07;;;6.78;;
21754;SDS011;11039;50.028;19.938;2023-06-19T13:07:48;11.57;;;7.10;;
21754;SDS011;11039;50.028;19.938;2023-06-19T13:10:14;9.32;;;7.13;;
21754;SDS011;11039;50.028;19.938;2023-06-19T13:12:40;8.70;;;7.38;;
21754;SDS011;11039;50.028;19.938;2023-06-19T13:15:06;8.15;;;7.35;;
21754;SDS011;11039;50.028;19.938;2023-06-19T13:17:33;7.60;;;6.80;;
21754;SDS011;11039;50.028;19.938;2023-06-19T13:19:59;8.32;;;7.53;;
21754;SDS011;11039;50.028;19.938;2023-06-19T13:22:25;8.45;;;6.88;;
21754;SDS011;11039;50.028;19.938;2023-06-19T13:24:51;10.27;;;7.30;;
21754;SDS011;11039;50.028;19.938;2023-06-19T13:27:18;8.88;;;8.00;;
21754;SDS011;11039;50.028;19.938;2023-06-19T13:32:03;9.13;;;7.45;;
21754;SDS011;11039;50.028;19.938;2023-06-19T13:34:29;11.10;;;7.60;;
21754;SDS011;11039;50.028;19.938;2023-06-19T13:36:55;8.23;;;7.43;;
21754;SDS011;11039;50.028;19.938;2023-06-19T13:39:21;9.95;;;8.07;;
21754;SDS011;11039;50.028;19.938;2023-06-19T13:41:47;9.13;;;8.20;;
21754;SDS011;11039;50.028;19.938;2023-06-19T13:44:13;9.25;;;7.40;;
21754;SDS011;11039;50.028;19.938;2023-06-19T13:46:39;9.05;;;8.05;;
21754;SDS011;11039;50.028;19.938;2023-06-19T13:49:05;10.60;;;7.50;;
21754;SDS011;11039;50.028;19.938;2023-06-19T13:51:31;8.93;;;7.80;;
21754;SDS011;11039;50.028;19.938;2023-06-19T13:53:57;9.45;;;7.95;;
21754;SDS011;11039;50.028;19.938;2023-06-19T13:56:23;9.07;;;7.80;;
21754;SDS011;11039;50.028;19.938;2023-06-19T13:58:50;9.40;;;8.18;;
21754;SDS011;11039;50.028;19.938;2023-06-19T14:01:16;10.10;;;7.78;;
21754;SDS011;11039;50.028;19.938;2023-06-19T14:03:42;11.23;;;7.53;;
21754;SDS011;11039;50.028;19.938;2023-06-19T14:06:08;10.05;;;8.25;;
21754;SDS011;11039;50.028;19.938;2023-06-19T14:08:34;9.48;;;7.60;;
21754;SDS011;11039;50.028;19.938;2023-06-19T14:11:00;9.38;;;7.65;;
21754;SDS011;11039;50.028;19.938;2023-06-19T14:13:26;8.88;;;7.97;;
21754;SDS011;11039;50.028;19.938;2023-06-19T14:18:10;9.93;;;9.02;;
21754;SDS011;11039;50.028;19.938;2023-06-19T14:22:54;8.95;;;8.15;;
21754;SDS011;11039;50.028;19.938;2023-06-19T14:25:20;9.63;;;8.70;;
21754;SDS011;11039;50.028;19.938;2023-06-19T14:27:46;8.55;;;7.75;;
21754;SDS011;11039;50.028;19.938;2023-06-19T14:30:12;10.05;;;8.13;;
21754;SDS011;11039;50.028;19.938;2023-06-19T14:32:38;8.50;;;7.70;;
21754;SDS011;11039;50.028;19.938;2023-06-19T14:35:04;8.50;;;7.70;;
21754;SDS011;11039;50.028;19.938;2023-06-19T14:37:31;9.82;;;7.45;;
21754;SDS011;11039;50.028;19.938;2023-06-19T14:39:57;10.68;;;8.05;;
21754;SDS011;11039;50.028;19.938;2023-06-19T14:42:23;8.60;;;7.80;;
21754;SDS011;11039;50.028;19.938;2023-06-19T14:44:49;8.25;;;7.45;;
21754;SDS011;11039;50.028;19.938;2023-06-19T14:47:15;8.43;;;7.60;;
21754;SDS011;11039;50.028;19.938;2023-06-19T14:49:41;7.97;;;7.22;;
21754;SDS011;11039;50.028;19.938;2023-06-19T14:52:07;9.10;;;7.78;;
21754;SDS011;11039;50.028;19.938;2023-06-19T14:54:33;8.20;;;7.40;;
21754;SDS011;11039;50.028;19.938;2023-06-19T14:56:59;8.52;;;7.57;;
21754;SDS011;11039;50.028;19.938;2023-06-19T14:59:25;7.90;;;7.20;;
21754;SDS011;11039;50.028;19.938;2023-06-19T15:01:52;8.02;;;7.22;;
21754;SDS011;11039;50.028;19.938;2023-06-19T15:04:18;9.07;;;8.18;;
21754;SDS011;11039;50.028;19.938;2023-06-19T15:06:44;7.85;;;7.15;;
21754;SDS011;11039;50.028;19.938;2023-06-19T15:09:10;7.70;;;6.90;;
21754;SDS011;11039;50.028;19.938;2023-06-19T15:11:36;7.85;;;7.15;;
21754;SDS011;11039;50.028;19.938;2023-06-19T15:14:02;10.18;;;7.80;;
21754;SDS011;11039;50.028;19.938;2023-06-19T15:16:28;8.15;;;7.35;;
21754;SDS011;11039;50.028;19.938;2023-06-19T15:18:54;9.23;;;8.02;;
21754;SDS011;11039;50.028;19.938;2023-06-19T15:21:20;9.38;;;7.93;;
21754;SDS011;11039;50.028;19.938;2023-06-19T15:23:46;12.35;;;8.25;;
21754;SDS011;11039;50.028;19.938;2023-06-19T15:26:14;16.88;;;9.32;;
21754;SDS011;11039;50.028;19.938;2023-06-19T15:28:40;18.10;;;9.90;;
21754;SDS011;11039;50.028;19.938;2023-06-19T15:31:08;17.13;;;9.70;;